createdAt,value
2023-02-02T00:01:09.960Z,60.15
2023-02-02T00:04:22.345Z,52.67
2023-02-02T00:07:25.873Z,55.75
2023-02-02T00:10:29.639Z,59.45
2023-02-02T00:13:33.678Z,63.75
2023-02-02T00:16:38.436Z,64.05
2023-02-02T00:19:42.401Z,57.67
2023-02-02T00:22:45.671Z,64.45
2023-02-02T00:25:51.964Z,60.45
2023-02-02T00:28:55.777Z,55.23
2023-02-02T00:31:59.360Z,55.83
2023-02-02T00:35:02.282Z,68.53
2023-02-02T00:38:06.951Z,60.03
2023-02-02T00:41:10.902Z,63.38
2023-02-02T00:44:33.354Z,53.35
2023-02-02T00:47:36.932Z,60.65
2023-02-02T00:50:40.888Z,60.40
2023-02-02T00:53:44.148Z,67.95
2023-02-02T00:56:49.100Z,64.10
2023-02-02T00:59:52.812Z,72.03
2023-02-02T01:02:57.907Z,65.88
2023-02-02T01:06:01.180Z,71.05
2023-02-02T01:09:07.745Z,60.17
2023-02-02T01:12:11.409Z,72.88
2023-02-02T01:15:15.346Z,72.20
2023-02-02T01:18:19.409Z,89.40
2023-02-02T01:21:23.553Z,73.05
2023-02-02T01:24:27.231Z,78.70
2023-02-02T01:27:32.299Z,90.93
2023-02-02T01:30:36.037Z,78.97
2023-02-02T01:33:39.873Z,85.35
2023-02-02T01:36:42.945Z,80.10
2023-02-02T01:39:46.246Z,80.18
2023-02-02T01:42:50.013Z,68.45
2023-02-02T01:45:55.311Z,72.60
2023-02-02T01:48:58.238Z,88.75
2023-02-02T01:52:02.993Z,76.90
2023-02-02T01:55:10.764Z,76.88
2023-02-02T01:58:25.868Z,74.15
2023-02-02T02:01:29.309Z,71.05
2023-02-02T02:04:33.820Z,73.10
2023-02-02T02:07:37.136Z,69.68
2023-02-02T02:10:40.991Z,71.38
2023-02-02T02:14:03.142Z,75.15
2023-02-02T02:17:14.258Z,53.95
2023-02-02T02:21:33.629Z,64.32
2023-02-02T02:25:13.983Z,62.83
2023-02-02T02:28:51.392Z,63.88
2023-02-02T02:32:01.350Z,64.75
2023-02-02T02:35:28.873Z,78.30
2023-02-02T02:38:43.261Z,65.38
2023-02-02T02:41:53.455Z,75.53
2023-02-02T02:45:00.693Z,69.03
2023-02-02T02:48:05.183Z,81.63
2023-02-02T02:51:29.930Z,85.53
2023-02-02T02:54:50.272Z,76.88
2023-02-02T02:58:37.041Z,84.70
2023-02-02T03:02:17.525Z,87.70
2023-02-02T03:05:24.941Z,88.18
2023-02-02T03:08:34.550Z,93.05
2023-02-02T03:11:42.364Z,93.63
2023-02-02T03:14:45.936Z,96.50
2023-02-02T03:17:52.332Z,99.32
2023-02-02T03:20:56.140Z,107.05
2023-02-02T03:23:59.590Z,105.82
2023-02-02T03:27:03.288Z,102.18
2023-02-02T03:30:09.357Z,96.68
2023-02-02T03:33:14.956Z,96.13
2023-02-02T03:36:19.240Z,103.28
2023-02-02T03:39:22.565Z,93.35
2023-02-02T03:42:26.494Z,78.25
2023-02-02T03:45:30.320Z,88.63
2023-02-02T03:48:38.675Z,92.00
2023-02-02T03:51:44.974Z,51.78
2023-02-02T03:54:48.686Z,54.97
2023-02-02T03:57:52.299Z,51.53
2023-02-02T04:01:03.590Z,46.88
2023-02-02T04:04:06.868Z,44.08
2023-02-02T04:07:10.992Z,40.28
2023-02-02T04:10:14.615Z,44.53
2023-02-02T04:13:18.202Z,44.72
2023-02-02T04:16:22.139Z,46.00
2023-02-02T04:19:26.502Z,36.97
2023-02-02T04:22:29.764Z,46.03
2023-02-02T04:25:33.761Z,38.42
2023-02-02T04:28:37.332Z,47.22
2023-02-02T04:31:40.739Z,50.85
2023-02-02T04:34:45.037Z,38.13
2023-02-02T04:37:48.038Z,39.17
2023-02-02T04:40:51.593Z,34.13
2023-02-02T04:43:54.758Z,38.30
2023-02-02T04:46:57.965Z,35.47
2023-02-02T04:50:00.903Z,30.05
2023-02-02T04:53:06.015Z,31.05
2023-02-02T04:56:18.400Z,34.15
2023-02-02T04:59:24.009Z,30.75
2023-02-02T05:02:27.259Z,29.88
2023-02-02T05:05:30.554Z,29.52
2023-02-02T05:08:34.401Z,29.77
2023-02-02T05:11:39.458Z,32.80
2023-02-02T05:14:43.145Z,30.30
2023-02-02T05:17:46.735Z,29.65
2023-02-02T05:20:50.310Z,31.15
2023-02-02T05:23:53.964Z,30.92
2023-02-02T05:27:01.099Z,31.25
2023-02-02T05:30:05.169Z,29.30
2023-02-02T05:33:08.830Z,29.80
2023-02-02T05:36:13.340Z,32.65
2023-02-02T05:39:16.908Z,33.97
2023-02-02T05:42:20.824Z,34.10
2023-02-02T05:45:24.934Z,35.08
2023-02-02T05:48:29.124Z,37.03
2023-02-02T05:51:40.712Z,40.97
2023-02-02T05:54:44.110Z,37.70
2023-02-02T05:57:47.805Z,40.53
2023-02-02T06:00:51.813Z,41.70
2023-02-02T06:13:42.929Z,35.17
2023-02-02T06:20:16.574Z,26.65
2023-02-02T06:57:03.410Z,22.48
2023-02-02T07:33:04.291Z,26.90
2023-02-02T08:19:02.797Z,26.13
2023-02-02T08:36:29.082Z,45.40
2023-02-02T08:46:01.995Z,49.53
2023-02-02T09:32:11.698Z,29.77
2023-02-02T10:24:38.403Z,27.52
2023-02-02T10:54:25.623Z,27.70
2023-02-02T10:58:26.061Z,41.53
2023-02-02T11:14:22.288Z,23.33
2023-02-02T13:04:07.780Z,27.30
2023-02-02T13:07:20.241Z,24.15
2023-02-02T13:10:36.084Z,27.27
2023-02-02T13:13:41.847Z,29.92
2023-02-02T13:16:51.233Z,26.02
2023-02-02T13:20:08.217Z,25.98
2023-02-02T13:23:28.041Z,23.58
2023-02-02T13:26:45.794Z,27.23
2023-02-02T13:29:53.012Z,27.15
2023-02-02T13:33:01.669Z,18.10
2023-02-02T13:36:07.604Z,34.88
2023-02-02T13:39:33.879Z,32.77
2023-02-02T13:42:50.246Z,33.53
2023-02-02T13:46:12.749Z,31.92
2023-02-02T13:49:30.127Z,14.82
2023-02-02T13:53:09.545Z,22.92
2023-02-02T13:56:45.199Z,18.88
2023-02-02T14:00:15.745Z,18.35
2023-02-02T14:03:45.711Z,18.52
2023-02-02T14:10:06.947Z,15.10
2023-02-02T14:13:36.261Z,14.75
2023-02-02T14:16:39.987Z,16.67
2023-02-02T14:19:57.563Z,15.13
2023-02-02T14:23:00.576Z,11.80
2023-02-02T14:26:09.685Z,14.40
2023-02-02T14:29:46.780Z,20.55
2023-02-02T14:32:51.654Z,11.40
2023-02-02T14:36:01.625Z,16.08
2023-02-02T14:39:13.980Z,25.65
2023-02-02T14:42:47.872Z,22.85
2023-02-02T14:46:13.803Z,30.13
2023-02-02T14:49:20.411Z,30.10
2023-02-02T14:52:24.470Z,27.17
2023-02-02T14:55:29.433Z,31.05
2023-02-02T14:58:40.839Z,21.80
2023-02-02T15:01:53.748Z,22.83
2023-02-02T15:05:39.463Z,25.90
2023-02-02T15:08:42.523Z,19.83
2023-02-02T15:12:03.903Z,20.90
2023-02-02T15:15:30.212Z,30.02
2023-02-02T15:18:43.005Z,30.60
2023-02-02T15:21:48.964Z,31.67
2023-02-02T15:24:53.846Z,20.08
2023-02-02T15:28:22.872Z,15.95
2023-02-02T15:31:40.452Z,22.50
2023-02-02T15:34:47.378Z,24.88
2023-02-02T15:37:59.472Z,21.85
2023-02-02T15:41:35.464Z,15.88
2023-02-02T15:44:39.578Z,17.52
2023-02-02T15:47:43.700Z,21.17
2023-02-02T15:50:51.645Z,16.02
2023-02-02T15:53:55.297Z,24.50
2023-02-02T15:57:02.017Z,17.15
2023-02-02T16:00:40.648Z,26.73
2023-02-02T16:03:55.775Z,21.08
2023-02-02T16:07:00.640Z,14.27
2023-02-02T16:10:09.056Z,11.20
2023-02-02T16:13:29.260Z,13.75
2023-02-02T16:16:38.966Z,13.82
2023-02-02T16:19:45.047Z,15.02
2023-02-02T16:22:49.013Z,9.80
2023-02-02T16:25:56.916Z,14.88
2023-02-02T16:29:00.342Z,13.63
2023-02-02T16:32:05.180Z,17.05
2023-02-02T16:35:31.212Z,16.45
2023-02-02T16:38:36.737Z,17.60
2023-02-02T16:41:40.377Z,16.02
2023-02-02T16:44:44.582Z,19.00
2023-02-02T16:47:48.199Z,19.70
2023-02-02T16:51:07.000Z,19.90
2023-02-02T16:54:10.275Z,15.18
2023-02-02T16:57:25.125Z,18.77
2023-02-02T17:00:30.161Z,9.00
2023-02-02T17:03:37.439Z,16.50
2023-02-02T17:06:51.744Z,17.60
2023-02-02T17:10:15.611Z,23.05
2023-02-02T17:13:39.969Z,23.80
2023-02-02T17:16:43.088Z,25.33
2023-02-02T17:19:48.339Z,26.50
2023-02-02T17:23:07.636Z,23.05
2023-02-02T17:26:12.661Z,21.35
2023-02-02T17:29:20.613Z,21.48
2023-02-02T17:32:25.479Z,21.52
2023-02-02T17:35:39.855Z,17.45
2023-02-02T17:38:47.031Z,18.52
2023-02-02T17:41:52.006Z,25.02
2023-02-02T17:44:55.149Z,33.08
2023-02-02T17:47:59.236Z,30.35
2023-02-02T17:51:06.871Z,31.27
2023-02-02T17:54:15.609Z,34.33
2023-02-02T17:57:18.969Z,30.08
2023-02-02T18:00:25.427Z,25.55
2023-02-02T18:03:34.395Z,19.83
2023-02-02T18:06:38.933Z,20.08
2023-02-02T18:09:42.264Z,13.68
2023-02-02T18:12:45.379Z,5.35
2023-02-02T18:15:50.053Z,13.48
2023-02-02T18:18:54.299Z,12.07
2023-02-02T18:21:58.011Z,12.38
2023-02-02T18:25:01.100Z,12.55
2023-02-02T18:28:04.528Z,12.55
2023-02-02T18:31:13.500Z,10.35
2023-02-02T18:34:16.479Z,15.57
2023-02-02T18:37:19.421Z,16.75
2023-02-02T18:40:22.745Z,18.88
2023-02-02T18:43:26.364Z,19.65
2023-02-02T18:46:34.678Z,26.20
2023-02-02T18:49:38.357Z,29.42
2023-02-02T18:52:42.348Z,20.63
2023-02-02T18:55:45.976Z,24.77
2023-02-02T18:58:49.370Z,15.38
2023-02-02T19:01:56.258Z,7.68
2023-02-02T19:05:17.872Z,9.68
2023-02-02T19:08:21.614Z,8.07
2023-02-02T19:11:28.599Z,5.18
2023-02-02T19:14:34.895Z,7.55
2023-02-02T19:17:38.645Z,8.43
2023-02-02T19:20:42.628Z,9.23
2023-02-02T19:23:46.927Z,11.35
2023-02-02T19:26:51.155Z,15.80
2023-02-02T19:29:59.855Z,8.77
2023-02-02T19:33:03.087Z,11.25
2023-02-02T19:36:09.164Z,13.43
2023-02-02T19:39:16.729Z,6.55
2023-02-02T19:42:20.494Z,13.38
2023-02-02T19:45:24.944Z,18.48
2023-02-02T19:48:36.220Z,14.30
2023-02-02T19:51:45.065Z,13.63
2023-02-02T19:54:50.001Z,13.45
2023-02-02T19:58:13.751Z,14.20
2023-02-02T20:01:22.211Z,14.23
2023-02-02T20:04:26.152Z,19.80
2023-02-02T20:07:30.563Z,19.05
2023-02-02T20:10:42.973Z,18.38
2023-02-02T20:13:49.512Z,13.88
2023-02-02T20:16:56.261Z,13.07
2023-02-02T20:20:00.743Z,13.23
2023-02-02T20:23:04.035Z,11.57
2023-02-02T20:26:29.836Z,9.90
2023-02-02T20:29:42.606Z,7.05
2023-02-02T20:32:47.127Z,17.25
2023-02-02T20:35:50.170Z,13.35
2023-02-02T20:38:53.868Z,17.35
2023-02-02T20:41:59.214Z,7.32
2023-02-02T20:45:02.568Z,12.85
2023-02-02T20:48:06.454Z,11.05
2023-02-02T20:51:10.657Z,12.95
2023-02-02T20:54:13.735Z,11.40
2023-02-02T20:57:17.833Z,11.63
2023-02-02T21:00:24.530Z,10.32
2023-02-02T21:03:27.713Z,6.25
2023-02-02T21:06:30.767Z,6.75
2023-02-02T21:09:33.713Z,5.53
2023-02-02T21:12:36.684Z,7.03
2023-02-02T21:15:39.752Z,8.52
2023-02-02T21:18:47.414Z,6.35
2023-02-02T21:21:50.530Z,6.28
2023-02-02T21:24:55.289Z,4.50
2023-02-02T21:28:01.054Z,4.32
2023-02-02T21:31:04.983Z,3.55
2023-02-02T21:34:09.461Z,4.28
2023-02-02T21:37:15.154Z,3.13
2023-02-02T21:40:28.209Z,6.78
2023-02-02T21:43:33.687Z,3.95
2023-02-02T21:46:38.955Z,6.53
2023-02-02T21:49:43.033Z,4.75
2023-02-02T21:52:48.050Z,7.15
2023-02-02T21:56:00.294Z,2.97
2023-02-02T21:59:13.114Z,2.70
2023-02-02T22:02:43.347Z,3.78
2023-02-02T22:05:48.573Z,7.05
2023-02-02T22:08:53.718Z,4.07
2023-02-02T22:12:02.431Z,14.48
2023-02-02T22:15:17.151Z,14.32
2023-02-02T22:18:24.366Z,9.68
2023-02-02T22:21:27.908Z,8.68
2023-02-02T22:24:31.264Z,10.23
2023-02-02T22:27:59.106Z,14.65
2023-02-02T22:34:05.691Z,13.82
2023-02-02T22:37:09.905Z,13.88
2023-02-02T22:40:14.072Z,32.17
2023-02-02T22:43:20.025Z,25.08
2023-02-02T22:46:23.057Z,24.63
2023-02-02T22:49:26.810Z,20.98
2023-02-02T22:52:29.954Z,15.65
2023-02-02T22:55:34.216Z,19.13
2023-02-02T22:58:37.209Z,13.10
2023-02-02T23:01:40.185Z,17.95
2023-02-02T23:04:43.089Z,15.65
2023-02-02T23:07:46.715Z,18.00
2023-02-02T23:10:49.727Z,14.13
2023-02-02T23:13:53.501Z,9.43
2023-02-02T23:16:56.441Z,15.57
2023-02-02T23:19:59.494Z,14.40
2023-02-02T23:23:03.178Z,7.60
2023-02-02T23:26:06.941Z,11.27
2023-02-02T23:29:10.636Z,6.10
2023-02-02T23:32:13.971Z,9.63
2023-02-02T23:35:17.638Z,9.25
2023-02-02T23:38:21.316Z,8.88
2023-02-02T23:41:24.745Z,6.43
2023-02-02T23:44:28.385Z,6.70
2023-02-02T23:47:33.666Z,7.65
2023-02-02T23:50:41.081Z,7.53
2023-02-02T23:53:44.657Z,7.18
2023-02-02T23:56:48.353Z,5.63
2023-02-02T23:59:51.733Z,6.80
